sensor_id;sensor_type;location;lat;lon;timestamp;pressure;altitude;pressure_sealevel;temperature;humidity
63808;BME280;49961;43.970;22.868;2022-07-09T00:00:51;101281.94;;;22.46;100.00
63808;BME280;49961;43.970;22.868;2022-07-09T00:01:51;101289.16;;;22.47;100.00
63808;BME280;49961;43.970;22.868;2022-07-09T00:02:52;101214.94;;;21.96;100.00
63808;BME280;49961;43.970;22.868;2022-07-09T00:03:52;101286.53;;;22.44;100.00
63808;BME280;49961;43.970;22.868;2022-07-09T00:04:55;101249.69;;;22.07;100.00
63808;BME280;49961;43.970;22.868;2022-07-09T00:05:55;101273.69;;;22.17;100.00
63808;BME280;49961;43.970;22.868;2022-07-09T00:06:56;101292.69;;;22.22;100.00
63808;BME280;49961;43.970;22.868;2022-07-09T00:07:56;101291.66;;;22.20;100.00
63808;BME280;49961;43.970;22.868;2022-07-09T00:08:57;101192.81;;;21.49;100.00
63808;BME280;49961;43.970;22.868;2022-07-09T00:09:58;101289.34;;;22.18;100.00
63808;BME280;49961;43.970;22.868;2022-07-09T00:10:59;101242.38;;;21.95;100.00
63808;BME280;49961;43.970;22.868;2022-07-09T00:11:59;101291.44;;;22.23;100.00
63808;BME280;49961;43.970;22.868;2022-07-09T00:13:00;101286.56;;;22.24;100.00
63808;BME280;49961;43.970;22.868;2022-07-09T00:14:00;101292.69;;;22.22;100.00
63808;BME280;49961;43.970;22.868;2022-07-09T00:15:01;101287.34;;;22.24;100.00
63808;BME280;49961;43.970;22.868;2022-07-09T00:16:02;101292.22;;;22.24;100.00
63808;BME280;49961;43.970;22.868;2022-07-09T00:17:02;101198.63;;;21.65;100.00
63808;BME280;49961;43.970;22.868;2022-07-09T00:18:03;101293.81;;;22.30;100.00
63808;BME280;49961;43.970;22.868;2022-07-09T00:19:03;101283.81;;;22.29;100.00
63808;BME280;49961;43.970;22.868;2022-07-09T00:20:05;101285.34;;;22.30;100.00
63808;BME280;49961;43.970;22.868;2022-07-09T00:21:05;101300.59;;;22.38;100.00
63808;BME280;49961;43.970;22.868;2022-07-09T00:22:06;101305.72;;;22.40;100.00
63808;BME280;49961;43.970;22.868;2022-07-09T00:23:06;101302.63;;;22.38;100.00
63808;BME280;49961;43.970;22.868;2022-07-09T00:24:07;101308.28;;;22.38;100.00
63808;BME280;49961;43.970;22.868;2022-07-09T00:25:08;101318.31;;;22.39;100.00
63808;BME280;49961;43.970;22.868;2022-07-09T00:26:08;101288.63;;;22.23;100.00
63808;BME280;49961;43.970;22.868;2022-07-09T00:27:09;101319.47;;;22.47;100.00
63808;BME280;49961;43.970;22.868;2022-07-09T00:28:09;101324.63;;;22.48;100.00
63808;BME280;49961;43.970;22.868;2022-07-09T00:29:09;101327.22;;;22.52;100.00
63808;BME280;49961;43.970;22.868;2022-07-09T00:30:10;101326.91;;;22.50;100.00
63808;BME280;49961;43.970;22.868;2022-07-09T00:31:11;101328.50;;;22.51;100.00
63808;BME280;49961;43.970;22.868;2022-07-09T00:32:11;101338.50;;;22.52;100.00
63808;BME280;49961;43.970;22.868;2022-07-09T00:33:12;101333.13;;;22.54;100.00
63808;BME280;49961;43.970;22.868;2022-07-09T00:34:12;101292.28;;;22.29;100.00
63808;BME280;49961;43.970;22.868;2022-07-09T00:35:13;101323.34;;;22.49;100.00
63808;BME280;49961;43.970;22.868;2022-07-09T00:36:13;101181.34;;;21.58;100.00
63808;BME280;49961;43.970;22.868;2022-07-09T00:37:14;101303.41;;;22.38;100.00
63808;BME280;49961;43.970;22.868;2022-07-09T00:38:14;101161.06;;;21.54;100.00
63808;BME280;49961;43.970;22.868;2022-07-09T00:39:15;101318.03;;;22.57;100.00
63808;BME280;49961;43.970;22.868;2022-07-09T00:40:15;101318.06;;;22.62;100.00
63808;BME280;49961;43.970;22.868;2022-07-09T00:41:16;101318.34;;;22.64;100.00
63808;BME280;49961;43.970;22.868;2022-07-09T00:42:17;101313.44;;;22.59;100.00
63808;BME280;49961;43.970;22.868;2022-07-09T00:43:21;101310.88;;;22.61;100.00
63808;BME280;49961;43.970;22.868;2022-07-09T00:44:22;101305.72;;;22.60;100.00
63808;BME280;49961;43.970;22.868;2022-07-09T00:45:23;101303.19;;;22.62;100.00
63808;BME280;49961;43.970;22.868;2022-07-09T00:46:23;101302.66;;;22.63;100.00
63808;BME280;49961;43.970;22.868;2022-07-09T00:47:24;101306.53;;;22.66;100.00
63808;BME280;49961;43.970;22.868;2022-07-09T00:48:24;101293.69;;;22.65;100.00
63808;BME280;49961;43.970;22.868;2022-07-09T00:49:28;101179.78;;;21.97;100.00
63808;BME280;49961;43.970;22.868;2022-07-09T00:50:28;101161.63;;;21.78;100.00
63808;BME280;49961;43.970;22.868;2022-07-09T00:51:30;101313.03;;;22.72;100.00
63808;BME280;49961;43.970;22.868;2022-07-09T00:52:32;101230.81;;;22.19;100.00
63808;BME280;49961;43.970;22.868;2022-07-09T00:53:35;101288.84;;;22.71;100.00
63808;BME280;49961;43.970;22.868;2022-07-09T00:54:36;101294.81;;;22.73;100.00
63808;BME280;49961;43.970;22.868;2022-07-09T00:55:38;101293.03;;;22.75;100.00
63808;BME280;49961;43.970;22.868;2022-07-09T00:56:39;101291.97;;;22.73;100.00
63808;BME280;49961;43.970;22.868;2022-07-09T00:57:40;101297.00;;;22.63;100.00
63808;BME280;49961;43.970;22.868;2022-07-09T00:58:42;101298.19;;;22.77;100.00
63808;BME280;49961;43.970;22.868;2022-07-09T00:59:44;101186.03;;;22.06;100.00
63808;BME280;49961;43.970;22.868;2022-07-09T01:00:45;101296.66;;;22.81;100.00
63808;BME280;49961;43.970;22.868;2022-07-09T01:01:45;101277.03;;;22.67;100.00
63808;BME280;49961;43.970;22.868;2022-07-09T01:02:49;101289.91;;;22.73;100.00
63808;BME280;49961;43.970;22.868;2022-07-09T01:03:49;101288.13;;;22.76;100.00
63808;BME280;49961;43.970;22.868;2022-07-09T01:04:50;101295.34;;;22.77;100.00
63808;BME280;49961;43.970;22.868;2022-07-09T01:05:50;101297.13;;;22.74;100.00
63808;BME280;49961;43.970;22.868;2022-07-09T01:06:51;101294.00;;;22.72;100.00
63808;BME280;49961;43.970;22.868;2022-07-09T01:07:52;101199.94;;;22.10;100.00
63808;BME280;49961;43.970;22.868;2022-07-09T01:08:53;101258.59;;;22.46;100.00
63808;BME280;49961;43.970;22.868;2022-07-09T01:09:54;101286.81;;;22.71;100.00
63808;BME280;49961;43.970;22.868;2022-07-09T01:10:54;101294.47;;;22.65;100.00
63808;BME280;49961;43.970;22.868;2022-07-09T01:11:55;101289.00;;;22.56;100.00
63808;BME280;49961;43.970;22.868;2022-07-09T01:12:56;101198.41;;;21.89;100.00
63808;BME280;49961;43.970;22.868;2022-07-09T01:13:57;101305.44;;;22.58;100.00
63808;BME280;49961;43.970;22.868;2022-07-09T01:14:58;101280.47;;;22.51;100.00
63808;BME280;49961;43.970;22.868;2022-07-09T01:15:58;101279.47;;;22.54;100.00
63808;BME280;49961;43.970;22.868;2022-07-09T01:17:00;101287.22;;;22.59;100.00
63808;BME280;49961;43.970;22.868;2022-07-09T01:18:01;101277.47;;;22.60;100.00
63808;BME280;49961;43.970;22.868;2022-07-09T01:19:01;101282.28;;;22.54;100.00
63808;BME280;49961;43.970;22.868;2022-07-09T01:20:02;101275.59;;;22.51;100.00
63808;BME280;49961;43.970;22.868;2022-07-09T01:21:03;101267.69;;;22.35;100.00
63808;BME280;49961;43.970;22.868;2022-07-09T01:22:04;101262.50;;;22.28;100.00
63808;BME280;49961;43.970;22.868;2022-07-09T01:23:04;101274.06;;;22.30;100.00
63808;BME280;49961;43.970;22.868;2022-07-09T01:24:05;101248.19;;;22.12;100.00
63808;BME280;49961;43.970;22.868;2022-07-09T01:25:07;101268.91;;;22.29;100.00
63808;BME280;49961;43.970;22.868;2022-07-09T01:26:09;101148.09;;;21.42;100.00
63808;BME280;49961;43.970;22.868;2022-07-09T01:27:10;101168.31;;;21.60;100.00
63808;BME280;49961;43.970;22.868;2022-07-09T01:28:10;101267.84;;;22.26;100.00
63808;BME280;49961;43.970;22.868;2022-07-09T01:29:11;101267.09;;;22.26;100.00
63808;BME280;49961;43.970;22.868;2022-07-09T01:30:23;101270.19;;;22.28;100.00
63808;BME280;49961;43.970;22.868;2022-07-09T01:31:24;101214.63;;;21.94;100.00
63808;BME280;49961;43.970;22.868;2022-07-09T01:32:24;101179.88;;;21.62;100.00
63808;BME280;49961;43.970;22.868;2022-07-09T01:33:25;101273.13;;;22.39;100.00
63808;BME280;49961;43.970;22.868;2022-07-09T01:34:26;101277.44;;;22.34;100.00
63808;BME280;49961;43.970;22.868;2022-07-09T01:35:27;101269.91;;;22.26;100.00
63808;BME280;49961;43.970;22.868;2022-07-09T01:36:27;101277.16;;;22.32;100.00
63808;BME280;49961;43.970;22.868;2022-07-09T01:37:28;101290.63;;;22.43;100.00
63808;BME280;49961;43.970;22.868;2022-07-09T01:38:28;101297.34;;;22.45;100.00
63808;BME280;49961;43.970;22.868;2022-07-09T01:39:29;101289.66;;;22.46;100.00
63808;BME280;49961;43.970;22.868;2022-07-09T01:40:29;101289.84;;;22.42;100.00
63808;BME280;49961;43.970;22.868;2022-07-09T01:41:30;101216.47;;;21.97;100.00
63808;BME280;49961;43.970;22.868;2022-07-09T01:42:32;101294.44;;;22.40;100.00
63808;BME280;49961;43.970;22.868;2022-07-09T01:43:32;101310.06;;;22.35;100.00
63808;BME280;49961;43.970;22.868;2022-07-09T01:44:34;101182.00;;;21.67;100.00
63808;BME280;49961;43.970;22.868;2022-07-09T01:45:34;101292.88;;;22.39;100.00
63808;BME280;49961;43.970;22.868;2022-07-09T01:46:34;101289.31;;;22.38;100.00
63808;BME280;49961;43.970;22.868;2022-07-09T01:47:35;101294.44;;;22.40;100.00
63808;BME280;49961;43.970;22.868;2022-07-09T01:48:36;101292.06;;;22.33;100.00
63808;BME280;49961;43.970;22.868;2022-07-09T01:49:37;101285.84;;;22.29;100.00
63808;BME280;49961;43.970;22.868;2022-07-09T01:50:39;101284.19;;;22.17;100.00
63808;BME280;49961;43.970;22.868;2022-07-09T01:51:40;101278.28;;;22.15;100.00
63808;BME280;49961;43.970;22.868;2022-07-09T01:52:40;101281.25;;;22.06;100.00
63808;BME280;49961;43.970;22.868;2022-07-09T01:53:41;101285.34;;;22.05;100.00
63808;BME280;49961;43.970;22.868;2022-07-09T01:54:41;101277.50;;;21.94;100.00
63808;BME280;49961;43.970;22.868;2022-07-09T01:55:42;101287.25;;;21.93;100.00
63808;BME280;49961;43.970;22.868;2022-07-09T01:56:42;101269.88;;;21.80;100.00
63808;BME280;49961;43.970;22.868;2022-07-09T01:57:43;101286.25;;;21.96;100.00
63808;BME280;49961;43.970;22.868;2022-07-09T01:58:43;101287.50;;;21.95;100.00
63808;BME280;49961;43.970;22.868;2022-07-09T01:59:44;101293.38;;;21.92;100.00
63808;BME280;49961;43.970;22.868;2022-07-09T02:00:45;101285.69;;;21.92;100.00
63808;BME280;49961;43.970;22.868;2022-07-09T02:01:45;101285.88;;;21.89;100.00
63808;BME280;49961;43.970;22.868;2022-07-09T02:02:46;101288.94;;;21.85;100.00
63808;BME280;49961;43.970;22.868;2022-07-09T02:03:46;101291.53;;;21.89;100.00
63808;BME280;49961;43.970;22.868;2022-07-09T02:04:47;101292.06;;;21.87;100.00
63808;BME280;49961;43.970;22.868;2022-07-09T02:05:47;101290.47;;;21.86;100.00
63808;BME280;49961;43.970;22.868;2022-07-09T02:06:48;101293.03;;;21.84;100.00
63808;BME280;49961;43.970;22.868;2022-07-09T02:07:49;101294.09;;;21.87;100.00
63808;BME280;49961;43.970;22.868;2022-07-09T02:08:49;101308.97;;;21.87;100.00
63808;BME280;49961;43.970;22.868;2022-07-09T02:09:50;101298.94;;;21.86;100.00
63808;BME280;49961;43.970;22.868;2022-07-09T02:10:52;101304.78;;;21.83;100.00
63808;BME280;49961;43.970;22.868;2022-07-09T02:11:52;101298.75;;;21.70;100.00
63808;BME280;49961;43.970;22.868;2022-07-09T02:12:53;101316.50;;;21.76;100.00
63808;BME280;49961;43.970;22.868;2022-07-09T02:13:53;101312.91;;;21.75;100.00
63808;BME280;49961;43.970;22.868;2022-07-09T02:14:54;101316.25;;;21.74;100.00
63808;BME280;49961;43.970;22.868;2022-07-09T02:15:54;101331.31;;;21.71;100.00
63808;BME280;49961;43.970;22.868;2022-07-09T02:16:55;101326.75;;;21.73;100.00
63808;BME280;49961;43.970;22.868;2022-07-09T02:17:55;101241.53;;;21.15;100.00
63808;BME280;49961;43.970;22.868;2022-07-09T02:18:56;101326.53;;;21.77;100.00
63808;BME280;49961;43.970;22.868;2022-07-09T02:19:56;101332.75;;;21.81;100.00
63808;BME280;49961;43.970;22.868;2022-07-09T02:20:57;101282.53;;;21.50;100.00
63808;BME280;49961;43.970;22.868;2022-07-09T02:21:58;101329.44;;;21.82;100.00
63808;BME280;49961;43.970;22.868;2022-07-09T02:22:58;101330.69;;;21.81;100.00
63808;BME280;49961;43.970;22.868;2022-07-09T02:23:59;101341.97;;;21.81;100.00
63808;BME280;49961;43.970;22.868;2022-07-09T02:24:59;101321.97;;;21.65;100.00
63808;BME280;49961;43.970;22.868;2022-07-09T02:26:00;101328.31;;;21.60;100.00
63808;BME280;49961;43.970;22.868;2022-07-09T02:27:00;101342.31;;;21.54;100.00
63808;BME280;49961;43.970;22.868;2022-07-09T02:28:01;101212.88;;;20.53;100.00
63808;BME280;49961;43.970;22.868;2022-07-09T02:29:02;101290.94;;;20.96;100.00
63808;BME280;49961;43.970;22.868;2022-07-09T02:30:03;101349.22;;;21.19;100.00
63808;BME280;49961;43.970;22.868;2022-07-09T02:31:03;101342.22;;;21.14;100.00
63808;BME280;49961;43.970;22.868;2022-07-09T02:32:04;101354.84;;;21.04;100.00
63808;BME280;49961;43.970;22.868;2022-07-09T02:33:05;101260.16;;;20.34;100.00
63808;BME280;49961;43.970;22.868;2022-07-09T02:34:05;101366.53;;;20.97;100.00
63808;BME280;49961;43.970;22.868;2022-07-09T02:35:07;101369.06;;;20.95;100.00
63808;BME280;49961;43.970;22.868;2022-07-09T02:36:08;101311.97;;;20.42;100.00
63808;BME280;49961;43.970;22.868;2022-07-09T02:37:08;101381.47;;;20.74;100.00
63808;BME280;49961;43.970;22.868;2022-07-09T02:38:09;101398.75;;;20.82;100.00
63808;BME280;49961;43.970;22.868;2022-07-09T02:39:09;101284.31;;;20.03;100.00
63808;BME280;49961;43.970;22.868;2022-07-09T02:40:10;101411.47;;;20.77;100.00
63808;BME280;49961;43.970;22.868;2022-07-09T02:41:10;101440.81;;;20.85;100.00
63808;BME280;49961;43.970;22.868;2022-07-09T02:42:11;101426.81;;;20.76;100.00
63808;BME280;49961;43.970;22.868;2022-07-09T02:43:11;101421.47;;;20.78;100.00
63808;BME280;49961;43.970;22.868;2022-07-09T02:44:12;101428.69;;;20.79;100.00
63808;BME280;49961;43.970;22.868;2022-07-09T02:45:12;101281.28;;;19.92;100.00
63808;BME280;49961;43.970;22.868;2022-07-09T02:46:13;101393.28;;;20.64;100.00
63808;BME280;49961;43.970;22.868;2022-07-09T02:47:14;101416.84;;;20.90;100.00
63808;BME280;49961;43.970;22.868;2022-07-09T02:48:14;101426.97;;;21.11;100.00
63808;BME280;49961;43.970;22.868;2022-07-09T02:49:15;101433.41;;;21.11;100.00
63808;BME280;49961;43.970;22.868;2022-07-09T02:50:15;101383.09;;;20.66;100.00
63808;BME280;49961;43.970;22.868;2022-07-09T02:51:16;101421.81;;;21.09;100.00
63808;BME280;49961;43.970;22.868;2022-07-09T02:52:16;101392.28;;;20.90;100.00
63808;BME280;49961;43.970;22.868;2022-07-09T02:53:18;101374.44;;;20.70;100.00
63808;BME280;49961;43.970;22.868;2022-07-09T02:54:18;101434.06;;;21.21;100.00
63808;BME280;49961;43.970;22.868;2022-07-09T02:55:19;101437.19;;;21.23;100.00
63808;BME280;49961;43.970;22.868;2022-07-09T02:56:19;101329.47;;;20.61;100.00
63808;BME280;49961;43.970;22.868;2022-07-09T02:57:20;101431.22;;;21.35;100.00
63808;BME280;49961;43.970;22.868;2022-07-09T02:58:20;101426.47;;;21.41;100.00
63808;BME280;49961;43.970;22.868;2022-07-09T02:59:21;101430.16;;;21.47;100.00
63808;BME280;49961;43.970;22.868;2022-07-09T03:00:21;101420.06;;;21.41;100.00
63808;BME280;49961;43.970;22.868;2022-07-09T03:01:22;101434.63;;;21.54;100.00
63808;BME280;49961;43.970;22.868;2022-07-09T03:02:22;101429.56;;;21.58;100.00
63808;BME280;49961;43.970;22.868;2022-07-09T03:03:23;101423.34;;;21.54;100.00
63808;BME280;49961;43.970;22.868;2022-07-09T03:04:23;101431.88;;;21.59;100.00
63808;BME280;49961;43.970;22.868;2022-07-09T03:05:24;101413.84;;;21.51;100.00
63808;BME280;49961;43.970;22.868;2022-07-09T03:06:24;101432.00;;;21.65;100.00
63808;BME280;49961;43.970;22.868;2022-07-09T03:07:25;101434.22;;;21.61;100.00
63808;BME280;49961;43.970;22.868;2022-07-09T03:08:25;101430.44;;;21.64;100.00
63808;BME280;49961;43.970;22.868;2022-07-09T03:09:26;101431.19;;;21.64;100.00
63808;BME280;49961;43.970;22.868;2022-07-09T03:10:27;101423.44;;;21.59;100.00
63808;BME280;49961;43.970;22.868;2022-07-09T03:11:27;101432.00;;;21.65;100.00
63808;BME280;49961;43.970;22.868;2022-07-09T03:12:28;101434.34;;;21.66;100.00
63808;BME280;49961;43.970;22.868;2022-07-09T03:13:28;101282.38;;;20.76;100.00
63808;BME280;49961;43.970;22.868;2022-07-09T03:14:29;101431.00;;;21.68;100.00
63808;BME280;49961;43.970;22.868;2022-07-09T03:15:29;101427.72;;;21.69;100.00
63808;BME280;49961;43.970;22.868;2022-07-09T03:16:30;101426.44;;;21.70;100.00
63808;BME280;49961;43.970;22.868;2022-07-09T03:17:30;101437.25;;;21.72;100.00
63808;BME280;49961;43.970;22.868;2022-07-09T03:18:31;101430.63;;;21.75;100.00
63808;BME280;49961;43.970;22.868;2022-07-09T03:19:31;101429.38;;;21.76;100.00
63808;BME280;49961;43.970;22.868;2022-07-09T03:20:32;101434.31;;;21.81;100.00
63808;BME280;49961;43.970;22.868;2022-07-09T03:21:32;101354.25;;;21.29;100.00
63808;BME280;49961;43.970;22.868;2022-07-09T03:22:33;101402.25;;;21.64;100.00
63808;BME280;49961;43.970;22.868;2022-07-09T03:23:33;101436.13;;;21.84;100.00
63808;BME280;49961;43.970;22.868;2022-07-09T03:24:34;101433.53;;;21.80;100.00
63808;BME280;49961;43.970;22.868;2022-07-09T03:25:34;101425.75;;;21.75;100.00
63808;BME280;49961;43.970;22.868;2022-07-09T03:26:35;101439.66;;;21.79;100.00
63808;BME280;49961;43.970;22.868;2022-07-09T03:27:36;101293.34;;;20.88;100.00
63808;BME280;49961;43.970;22.868;2022-07-09T03:28:36;101426.63;;;21.67;100.00
63808;BME280;49961;43.970;22.868;2022-07-09T03:29:37;101362.91;;;21.26;100.00
63808;BME280;49961;43.970;22.868;2022-07-09T03:30:37;101430.22;;;21.82;100.00
63808;BME280;49961;43.970;22.868;2022-07-09T03:31:38;101340.56;;;21.22;100.00
63808;BME280;49961;43.970;22.868;2022-07-09T03:32:38;101439.53;;;21.88;100.00
63808;BME280;49961;43.970;22.868;2022-07-09T03:33:39;101435.44;;;21.89;100.00
63808;BME280;49961;43.970;22.868;2022-07-09T03:34:39;101443.16;;;21.88;100.00
63808;BME280;49961;43.970;22.868;2022-07-09T03:35:40;101441.88;;;21.89;100.00
63808;BME280;49961;43.970;22.868;2022-07-09T03:36:40;101437.41;;;21.83;100.00
63808;BME280;49961;43.970;22.868;2022-07-09T03:37:41;101454.91;;;21.87;100.00
63808;BME280;49961;43.970;22.868;2022-07-09T03:38:42;101452.09;;;21.87;100.00
63808;BME280;49961;43.970;22.868;2022-07-09T03:39:42;101452.19;;;21.92;100.00
63808;BME280;49961;43.970;22.868;2022-07-09T03:40:42;101456.78;;;21.90;100.00
63808;BME280;49961;43.970;22.868;2022-07-09T03:41:43;101465.78;;;21.94;100.00
63808;BME280;49961;43.970;22.868;2022-07-09T03:42:43;101384.94;;;21.42;100.00
63808;BME280;49961;43.970;22.868;2022-07-09T03:43:44;101457.06;;;21.92;100.00
63808;BME280;49961;43.970;22.868;2022-07-09T03:44:45;101463.06;;;21.99;100.00
63808;BME280;49961;43.970;22.868;2022-07-09T03:45:45;101471.03;;;22.01;100.00
63808;BME280;49961;43.970;22.868;2022-07-09T03:46:46;101469.09;;;22.07;100.00
63808;BME280;49961;43.970;22.868;2022-07-09T03:47:46;101466.25;;;22.07;100.00
63808;BME280;49961;43.970;22.868;2022-07-09T03:48:48;101470.94;;;22.10;100.00
63808;BME280;49961;43.970;22.868;2022-07-09T03:49:49;101381.81;;;21.54;100.00
63808;BME280;49961;43.970;22.868;2022-07-09T03:50:49;101471.22;;;22.12;100.00
63808;BME280;49961;43.970;22.868;2022-07-09T03:51:50;101464.97;;;22.08;100.00
63808;BME280;49961;43.970;22.868;2022-07-09T03:52:50;101468.66;;;22.14;100.00
63808;BME280;49961;43.970;22.868;2022-07-09T03:53:51;101460.69;;;22.12;100.00
63808;BME280;49961;43.970;22.868;2022-07-09T03:54:51;101462.72;;;22.12;100.00
63808;BME280;49961;43.970;22.868;2022-07-09T03:55:52;101457.09;;;22.12;100.00
63808;BME280;49961;43.970;22.868;2022-07-09T03:56:52;101458.63;;;22.13;100.00
63808;BME280;49961;43.970;22.868;2022-07-09T03:57:53;101465.28;;;22.10;100.00
63808;BME280;49961;43.970;22.868;2022-07-09T03:58:53;101462.66;;;22.06;100.00
63808;BME280;49961;43.970;22.868;2022-07-09T03:59:54;101475.50;;;22.07;100.00
63808;BME280;49961;43.970;22.868;2022-07-09T04:00:54;101466.25;;;22.07;100.00
63808;BME280;49961;43.970;22.868;2022-07-09T04:01:55;101469.78;;;22.02;100.00
63808;BME280;49961;43.970;22.868;2022-07-09T04:02:55;101473.00;;;21.95;100.00
63808;BME280;49961;43.970;22.868;2022-07-09T04:03:56;101403.63;;;21.54;100.00
63808;BME280;49961;43.970;22.868;2022-07-09T04:04:56;101473.56;;;21.99;100.00
63808;BME280;49961;43.970;22.868;2022-07-09T04:05:57;101471.25;;;21.97;100.00
63808;BME280;49961;43.970;22.868;2022-07-09T04:06:57;101465.88;;;21.99;100.00
63808;BME280;49961;43.970;22.868;2022-07-09T04:07:57;101471.53;;;21.99;100.00
63808;BME280;49961;43.970;22.868;2022-07-09T04:08:58;101471.53;;;21.99;100.00
63808;BME280;49961;43.970;22.868;2022-07-09T04:10:04;101465.31;;;21.95;100.00
63808;BME280;49961;43.970;22.868;2022-07-09T04:11:05;101468.34;;;21.92;100.00
63808;BME280;49961;43.970;22.868;2022-07-09T04:12:06;101468.63;;;21.94;100.00
63808;BME280;49961;43.970;22.868;2022-07-09T04:13:07;101408.94;;;21.52;100.00
63808;BME280;49961;43.970;22.868;2022-07-09T04:14:07;101472.91;;;21.89;100.00
63808;BME280;49961;43.970;22.868;2022-07-09T04:15:08;101467.75;;;21.88;100.00
63808;BME280;49961;43.970;22.868;2022-07-09T04:16:09;101470.69;;;21.79;100.00
63808;BME280;49961;43.970;22.868;2022-07-09T04:17:09;101467.00;;;21.87;100.00
63808;BME280;49961;43.970;22.868;2022-07-09T04:18:10;101477.97;;;21.85;100.00
63808;BME280;49961;43.970;22.868;2022-07-09T04:19:10;101478.78;;;21.86;100.00
63808;BME280;49961;43.970;22.868;2022-07-09T04:20:11;101476.91;;;21.83;100.00
63808;BME280;49961;43.970;22.868;2022-07-09T04:21:11;101484.31;;;21.80;100.00
63808;BME280;49961;43.970;22.868;2022-07-09T04:22:12;101469.94;;;21.78;100.00
63808;BME280;49961;43.970;22.868;2022-07-09T04:23:12;101458.13;;;21.65;100.00
63808;BME280;49961;43.970;22.868;2022-07-09T04:24:13;101477.91;;;21.80;100.00
63808;BME280;49961;43.970;22.868;2022-07-09T04:25:15;101475.09;;;21.80;100.00
63808;BME280;49961;43.970;22.868;2022-07-09T04:26:16;101483.25;;;21.78;100.00
63808;BME280;49961;43.970;22.868;2022-07-09T04:27:18;101479.66;;;21.77;100.00
63808;BME280;49961;43.970;22.868;2022-07-09T04:28:19;101481.22;;;21.78;100.00
63808;BME280;49961;43.970;22.868;2022-07-09T04:29:20;101482.28;;;21.81;100.00
63808;BME280;49961;43.970;22.868;2022-07-09T04:30:21;101484.81;;;21.79;100.00
63808;BME280;49961;43.970;22.868;2022-07-09T04:31:21;101374.41;;;21.08;100.00
63808;BME280;49961;43.970;22.868;2022-07-09T04:32:22;101492.03;;;21.80;100.00
63808;BME280;49961;43.970;22.868;2022-07-09T04:33:22;101486.59;;;21.76;100.00
63808;BME280;49961;43.970;22.868;2022-07-09T04:34:22;101485.78;;;21.76;100.00
63808;BME280;49961;43.970;22.868;2022-07-09T04:35:23;101483.75;;;21.76;100.00
63808;BME280;49961;43.970;22.868;2022-07-09T04:36:23;101493.78;;;21.77;100.00
63808;BME280;49961;43.970;22.868;2022-07-09T04:37:24;101488.13;;;21.77;100.00
63808;BME280;49961;43.970;22.868;2022-07-09T04:38:24;101489.09;;;21.74;100.00
63808;BME280;49961;43.970;22.868;2022-07-09T04:39:25;101489.59;;;21.73;100.00
63808;BME280;49961;43.970;22.868;2022-07-09T04:40:25;101486.47;;;21.71;100.00
63808;BME280;49961;43.970;22.868;2022-07-09T04:41:26;101495.59;;;21.66;100.00
63808;BME280;49961;43.970;22.868;2022-07-09T04:42:28;101494.53;;;21.63;100.00
63808;BME280;49961;43.970;22.868;2022-07-09T04:43:29;101492.97;;;21.62;100.00
63808;BME280;49961;43.970;22.868;2022-07-09T04:44:29;101499.38;;;21.63;100.00
63808;BME280;49961;43.970;22.868;2022-07-09T04:45:30;101495.22;;;21.58;100.00
63808;BME280;49961;43.970;22.868;2022-07-09T04:46:31;101500.97;;;21.64;100.00
63808;BME280;49961;43.970;22.868;2022-07-09T04:47:32;101479.38;;;21.46;100.00
63808;BME280;49961;43.970;22.868;2022-07-09T04:48:34;101506.09;;;21.65;100.00
63808;BME280;49961;43.970;22.868;2022-07-09T04:49:34;101511.25;;;21.67;100.00
63808;BME280;49961;43.970;22.868;2022-07-09T04:50:35;101509.22;;;21.67;100.00
63808;BME280;49961;43.970;22.868;2022-07-09T04:51:35;101513.31;;;21.66;100.00
63808;BME280;49961;43.970;22.868;2022-07-09T04:52:37;101505.03;;;21.48;100.00
63808;BME280;49961;43.970;22.868;2022-07-09T04:53:37;101477.13;;;21.36;100.00
63808;BME280;49961;43.970;22.868;2022-07-09T04:54:38;101522.47;;;21.61;100.00
63808;BME280;49961;43.970;22.868;2022-07-09T04:55:38;101520.72;;;21.64;100.00
63808;BME280;49961;43.970;22.868;2022-07-09T04:56:39;101428.91;;;21.05;100.00
63808;BME280;49961;43.970;22.868;2022-07-09T04:57:39;101525.84;;;21.65;100.00
63808;BME280;49961;43.970;22.868;2022-07-09T04:58:40;101529.72;;;21.68;100.00
63808;BME280;49961;43.970;22.868;2022-07-09T04:59:51;101523.00;;;21.65;100.00
63808;BME280;49961;43.970;22.868;2022-07-09T05:00:52;101519.53;;;21.70;100.00
63808;BME280;49961;43.970;22.868;2022-07-09T05:01:52;101528.31;;;21.72;100.00
63808;BME280;49961;43.970;22.868;2022-07-09T05:02:53;101415.50;;;21.00;100.00
63808;BME280;49961;43.970;22.868;2022-07-09T05:03:53;101533.66;;;21.70;100.00
63808;BME280;49961;43.970;22.868;2022-07-09T05:04:54;101524.91;;;21.68;100.00
63808;BME280;49961;43.970;22.868;2022-07-09T05:05:54;101424.22;;;21.02;100.00
63808;BME280;49961;43.970;22.868;2022-07-09T05:06:55;101536.78;;;21.72;100.00
63808;BME280;49961;43.970;22.868;2022-07-09T05:07:55;101533.75;;;21.76;100.00
63808;BME280;49961;43.970;22.868;2022-07-09T05:08:56;101535.72;;;21.70;100.00
63808;BME280;49961;43.970;22.868;2022-07-09T05:09:57;101549.47;;;21.68;100.00